createdAt,value
2022-10-23T00:01:38.194Z,10.80
2022-10-23T00:04:22.889Z,10.82
2022-10-23T00:07:06.352Z,10.80
2022-10-23T00:09:49.605Z,10.72
2022-10-23T00:12:34.110Z,10.82
2022-10-23T00:15:21.015Z,10.74
2022-10-23T00:18:04.193Z,10.73
2022-10-23T00:20:47.355Z,10.75
2022-10-23T00:23:31.683Z,10.82
2022-10-23T00:26:16.039Z,10.87
2022-10-23T00:28:59.225Z,10.84
2022-10-23T00:31:43.725Z,10.82
2022-10-23T00:34:27.165Z,11.05
2022-10-23T00:37:10.274Z,11.06
2022-10-23T00:39:53.519Z,11.02
2022-10-23T00:42:36.704Z,11.04
2022-10-23T00:45:23.388Z,11.01
2022-10-23T00:48:08.234Z,11.10
2022-10-23T00:50:51.738Z,11.15
2022-10-23T00:53:34.913Z,11.26
2022-10-23T00:56:18.045Z,11.51
2022-10-23T00:59:01.416Z,11.82
2022-10-23T01:01:44.987Z,11.94
2022-10-23T01:04:30.442Z,12.03
2022-10-23T01:07:20.136Z,12.19
2022-10-23T01:10:07.887Z,12.07
2022-10-23T01:12:56.654Z,11.68
2022-10-23T01:15:46.039Z,11.44
2022-10-23T01:18:36.021Z,11.16
2022-10-23T01:21:28.986Z,10.89
2022-10-23T01:24:20.586Z,10.94
2022-10-23T01:27:17.096Z,10.72
2022-10-23T01:30:08.885Z,10.33
2022-10-23T01:32:57.029Z,10.07
2022-10-23T01:35:48.684Z,9.83
2022-10-23T01:38:40.693Z,9.60
2022-10-23T01:41:29.896Z,9.53
2022-10-23T01:44:21.029Z,9.69
2022-10-23T01:47:07.161Z,9.45
2022-10-23T01:49:52.709Z,9.30
2022-10-23T01:52:35.916Z,9.42
2022-10-23T01:55:19.338Z,9.47
2022-10-23T01:58:04.005Z,9.75
2022-10-23T02:00:49.521Z,9.82
2022-10-23T02:03:35.202Z,9.83
2022-10-23T02:06:18.505Z,9.86
2022-10-23T02:09:01.677Z,9.95
2022-10-23T02:11:55.414Z,10.01
2022-10-23T02:14:45.331Z,10.15
2022-10-23T02:17:42.079Z,10.36
2022-10-23T02:20:30.914Z,10.45
2022-10-23T02:23:21.593Z,10.54
2022-10-23T02:26:09.734Z,10.47
2022-10-23T02:28:59.756Z,10.49
2022-10-23T02:31:43.080Z,10.52
2022-10-23T02:34:27.700Z,10.51
2022-10-23T02:37:10.874Z,10.49
2022-10-23T02:39:56.155Z,10.57
2022-10-23T02:42:45.817Z,10.72
2022-10-23T02:45:33.830Z,10.83
2022-10-23T02:48:23.212Z,10.91
2022-10-23T02:51:16.146Z,10.99
2022-10-23T02:54:07.893Z,11.09
2022-10-23T02:56:55.117Z,10.90
2022-10-23T02:59:45.301Z,10.84
2022-10-23T03:02:34.669Z,10.78
2022-10-23T03:05:21.702Z,10.69
2022-10-23T03:08:06.955Z,10.75
2022-10-23T03:10:51.264Z,10.77
2022-10-23T03:13:34.398Z,10.80
2022-10-23T03:16:17.531Z,10.75
2022-10-23T03:19:00.664Z,10.77
2022-10-23T03:21:43.774Z,10.84
2022-10-23T03:24:28.327Z,10.88
2022-10-23T03:27:12.307Z,10.93
2022-10-23T03:29:55.379Z,11.02
2022-10-23T03:32:38.559Z,11.12
2022-10-23T03:35:28.118Z,11.19
2022-10-23T03:38:11.320Z,11.11
2022-10-23T03:40:55.828Z,11.09
2022-10-23T03:43:38.943Z,11.07
2022-10-23T03:46:22.138Z,11.15
2022-10-23T03:49:05.820Z,11.19
2022-10-23T03:51:52.243Z,11.20
2022-10-23T03:54:35.720Z,11.17
2022-10-23T03:57:20.209Z,11.17
2022-10-23T04:00:10.155Z,11.03
2022-10-23T04:02:53.215Z,10.91
2022-10-23T04:05:36.916Z,10.90
2022-10-23T04:08:20.753Z,10.83
2022-10-23T04:11:04.132Z,10.82
2022-10-23T04:13:48.823Z,10.72
2022-10-23T04:16:32.067Z,10.70
2022-10-23T04:19:19.086Z,10.72
2022-10-23T04:22:02.185Z,10.68
2022-10-23T04:24:46.825Z,10.67
2022-10-23T04:27:29.954Z,10.70
2022-10-23T04:30:15.041Z,10.71
2022-10-23T04:32:58.307Z,10.68
2022-10-23T04:35:41.619Z,10.66
2022-10-23T04:38:24.718Z,10.63
2022-10-23T04:41:08.358Z,10.64
2022-10-23T04:43:51.464Z,10.52
2022-10-23T04:46:37.478Z,10.52
2022-10-23T04:49:20.658Z,10.37
2022-10-23T04:52:04.034Z,10.37
2022-10-23T04:54:47.173Z,10.33
2022-10-23T04:57:30.340Z,10.36
2022-10-23T05:00:16.894Z,10.39
2022-10-23T05:03:01.642Z,10.35
2022-10-23T05:05:45.506Z,10.36
2022-10-23T05:08:29.218Z,10.44
2022-10-23T05:11:16.408Z,10.49
2022-10-23T05:13:59.484Z,10.49
2022-10-23T05:16:47.929Z,10.67
2022-10-23T05:19:38.041Z,10.71
2022-10-23T05:22:22.054Z,10.79
2022-10-23T05:25:06.486Z,10.84
2022-10-23T05:27:49.570Z,10.87
2022-10-23T05:30:34.196Z,11.00
2022-10-23T05:33:17.343Z,11.19
2022-10-23T05:36:03.381Z,11.17
2022-10-23T05:38:47.290Z,11.36
2022-10-23T05:41:30.433Z,11.52
2022-10-23T05:44:13.608Z,11.98
2022-10-23T05:46:56.730Z,12.61
2022-10-23T05:49:40.138Z,12.97
2022-10-23T05:52:24.794Z,13.60
2022-10-23T05:55:08.778Z,14.25
2022-10-23T05:57:51.902Z,14.72
2022-10-23T06:00:35.264Z,14.90
2022-10-23T06:03:18.380Z,14.78
2022-10-23T06:06:01.545Z,14.86
2022-10-23T06:08:46.029Z,15.31
2022-10-23T06:11:29.100Z,15.76
2022-10-23T06:14:12.298Z,16.08
2022-10-23T06:16:55.382Z,16.35
2022-10-23T06:19:38.479Z,16.60
2022-10-23T06:22:21.790Z,16.90
2022-10-23T06:25:07.456Z,17.13
2022-10-23T06:27:52.017Z,17.45
2022-10-23T06:30:35.149Z,17.57
2022-10-23T06:33:18.360Z,17.85
2022-10-23T06:36:02.476Z,17.92
2022-10-23T06:38:45.717Z,17.74
2022-10-23T06:41:30.334Z,17.67
2022-10-23T06:44:13.497Z,19.70
2022-10-23T06:46:56.974Z,25.05
2022-10-23T06:49:40.238Z,30.80
2022-10-23T06:52:45.327Z,34.70
2022-10-23T06:55:26.668Z,37.39
2022-10-23T06:58:11.635Z,38.36
2022-10-23T07:00:55.215Z,40.20
2022-10-23T07:03:38.405Z,40.81
2022-10-23T07:06:21.602Z,41.92
2022-10-23T07:09:04.939Z,41.43
2022-10-23T07:11:48.290Z,40.71
2022-10-23T07:14:32.843Z,43.20
2022-10-23T07:17:16.211Z,44.62
2022-10-23T07:20:01.266Z,45.83
2022-10-23T07:22:45.249Z,44.24
2022-10-23T07:25:28.838Z,45.28
2022-10-23T07:28:12.167Z,45.64
2022-10-23T07:31:00.109Z,44.42
2022-10-23T07:33:43.292Z,45.28
2022-10-23T07:36:26.664Z,45.71
2022-10-23T07:39:13.016Z,45.97
2022-10-23T07:41:56.262Z,46.22
2022-10-23T07:44:39.435Z,46.00
2022-10-23T07:47:24.137Z,47.51
2022-10-23T07:50:10.637Z,45.67
2022-10-23T07:52:53.912Z,46.39
2022-10-23T07:55:37.028Z,47.51
2022-10-23T07:58:20.497Z,48.29
2022-10-23T08:01:05.217Z,48.45
2022-10-23T08:03:49.862Z,48.22
2022-10-23T08:06:33.427Z,47.96
2022-10-23T08:09:16.556Z,47.55
2022-10-23T08:11:59.729Z,48.48
2022-10-23T08:14:42.838Z,49.14
2022-10-23T08:17:28.315Z,48.66
2022-10-23T08:20:13.855Z,45.61
2022-10-23T08:22:57.314Z,46.92
2022-10-23T08:25:41.408Z,46.31
2022-10-23T08:28:24.530Z,47.93
2022-10-23T08:31:09.466Z,48.71
2022-10-23T08:33:52.635Z,48.85
2022-10-23T08:36:39.283Z,47.60
2022-10-23T08:39:22.474Z,47.07
2022-10-23T08:42:05.954Z,47.87
2022-10-23T08:45:00.486Z,47.69
2022-10-23T08:47:47.983Z,48.07
2022-10-23T08:50:37.254Z,48.78
2022-10-23T08:53:26.658Z,50.08
2022-10-23T08:56:27.180Z,49.76
2022-10-23T08:59:20.646Z,48.70
2022-10-23T09:02:11.926Z,49.61
2022-10-23T09:04:58.135Z,51.28
2022-10-23T09:07:49.896Z,47.36
2022-10-23T09:10:52.908Z,50.42
2022-10-23T09:14:02.532Z,49.91
2022-10-23T09:16:57.759Z,48.99
2022-10-23T09:19:40.880Z,48.37
2022-10-23T09:22:24.060Z,45.15
2022-10-23T09:25:10.849Z,40.32
2022-10-23T09:27:59.065Z,37.27
2022-10-23T09:30:45.610Z,33.72
2022-10-23T09:33:29.626Z,32.86
2022-10-23T09:36:21.084Z,31.77
2022-10-23T09:39:04.327Z,34.02
2022-10-23T09:41:47.524Z,36.62
2022-10-23T09:44:34.433Z,40.59
2022-10-23T09:47:20.896Z,43.89
2022-10-23T09:50:04.156Z,44.82
2022-10-23T09:52:47.434Z,46.35
2022-10-23T09:55:31.138Z,46.28
2022-10-23T09:58:22.332Z,47.37
2022-10-23T10:01:07.404Z,48.79
2022-10-23T10:03:52.678Z,49.15
2022-10-23T10:06:36.422Z,49.54
2022-10-23T10:09:19.794Z,50.00
2022-10-23T10:12:18.349Z,49.85
2022-10-23T10:15:19.075Z,50.88
2022-10-23T10:18:14.651Z,50.50
2022-10-23T10:21:08.667Z,52.03
2022-10-23T10:24:00.827Z,51.28
2022-10-23T10:26:56.519Z,49.63
2022-10-23T10:29:55.410Z,52.13
2022-10-23T10:32:46.760Z,50.71
2022-10-23T10:35:44.496Z,50.87
2022-10-23T10:38:44.032Z,49.66
2022-10-23T10:41:42.669Z,51.09
2022-10-23T10:44:43.701Z,51.12
2022-10-23T10:47:48.769Z,53.27
2022-10-23T10:50:41.450Z,52.40
2022-10-23T10:53:43.066Z,52.04
2022-10-23T10:56:30.307Z,51.18
2022-10-23T10:59:18.511Z,53.36
2022-10-23T11:02:07.761Z,50.81
2022-10-23T11:05:47.408Z,50.86
2022-10-23T11:08:49.889Z,51.60
2022-10-23T11:11:42.422Z,52.15
2022-10-23T11:14:28.075Z,51.19
2022-10-23T11:17:17.323Z,49.74
2022-10-23T11:20:05.012Z,47.42
2022-10-23T11:22:57.248Z,47.00
2022-10-23T11:25:59.186Z,44.27
2022-10-23T11:28:58.409Z,39.88
2022-10-23T11:31:55.076Z,36.09
2022-10-23T11:35:12.021Z,33.39
2022-10-23T11:38:10.279Z,31.56
2022-10-23T11:40:58.475Z,30.47
2022-10-23T11:43:53.003Z,29.26
2022-10-23T11:46:38.410Z,28.22
2022-10-23T11:49:24.324Z,27.19
2022-10-23T11:52:25.721Z,26.62
2022-10-23T11:55:20.245Z,25.64
2022-10-23T11:58:22.439Z,25.64
2022-10-23T12:01:17.915Z,25.44
2022-10-23T12:04:04.408Z,24.77
2022-10-23T12:06:51.011Z,25.08
2022-10-23T12:09:42.006Z,24.72
2022-10-23T12:12:31.626Z,24.57
2022-10-23T12:15:24.854Z,24.17
2022-10-23T12:18:16.565Z,24.38
2022-10-23T12:21:01.238Z,24.20
2022-10-23T12:24:13.838Z,23.77
2022-10-23T12:27:07.525Z,23.63
2022-10-23T12:30:11.482Z,23.45
2022-10-23T12:33:09.349Z,23.15
2022-10-23T12:36:16.657Z,22.92
2022-10-23T12:38:59.790Z,22.92
2022-10-23T12:41:44.554Z,22.69
2022-10-23T12:44:28.482Z,22.64
2022-10-23T12:47:18.703Z,22.51
2022-10-23T12:50:03.248Z,22.43
2022-10-23T12:52:52.858Z,22.24
2022-10-23T12:55:49.717Z,22.26
2022-10-23T12:58:34.755Z,22.10
2022-10-23T13:01:26.050Z,22.10
2022-10-23T13:07:10.264Z,21.90
2022-10-23T13:09:55.163Z,21.71
2022-10-23T13:12:41.293Z,22.04
2022-10-23T13:15:25.406Z,22.04
2022-10-23T13:18:09.765Z,22.01
2022-10-23T13:20:59.583Z,21.91
2022-10-23T13:23:44.254Z,21.80
2022-10-23T13:26:32.184Z,21.71
2022-10-23T13:29:21.969Z,21.79
2022-10-23T13:32:11.844Z,21.78
2022-10-23T13:35:04.194Z,21.70
2022-10-23T13:38:09.415Z,21.79
2022-10-23T13:40:59.522Z,21.62
2022-10-23T13:43:43.457Z,21.53
2022-10-23T13:46:26.650Z,21.42
2022-10-23T13:49:09.789Z,21.20
2022-10-23T13:51:56.321Z,21.17
2022-10-23T13:54:39.365Z,20.92
2022-10-23T13:57:23.749Z,20.83
2022-10-23T14:00:08.240Z,20.84
2022-10-23T14:02:51.270Z,20.69
2022-10-23T14:05:34.363Z,20.62
2022-10-23T14:08:17.372Z,20.38
2022-10-23T14:11:00.421Z,20.19
2022-10-23T14:13:45.171Z,20.14
2022-10-23T14:16:28.430Z,20.03
2022-10-23T14:19:12.621Z,19.97
2022-10-23T14:21:55.592Z,19.97
2022-10-23T14:24:39.048Z,19.83
2022-10-23T14:27:22.062Z,19.80
2022-10-23T14:30:07.739Z,19.74
2022-10-23T14:32:51.002Z,19.69
2022-10-23T14:35:34.035Z,19.62
2022-10-23T14:38:17.051Z,19.50
2022-10-23T14:41:00.119Z,19.39
2022-10-23T14:43:43.812Z,19.34
2022-10-23T14:46:28.166Z,19.30
2022-10-23T14:49:11.230Z,19.25
2022-10-23T14:51:54.245Z,19.14
2022-10-23T14:54:37.285Z,19.10
2022-10-23T14:57:21.679Z,19.06
2022-10-23T15:00:05.379Z,19.00
2022-10-23T15:02:49.973Z,18.96
2022-10-23T15:05:32.964Z,18.89
2022-10-23T15:08:15.977Z,18.77
2022-10-23T15:11:01.457Z,18.70
2022-10-23T15:13:44.569Z,18.62
2022-10-23T15:16:28.342Z,18.52
2022-10-23T15:19:18.424Z,18.43
2022-10-23T15:22:02.049Z,18.30
2022-10-23T15:24:45.077Z,18.24
2022-10-23T15:27:28.067Z,18.19
2022-10-23T15:30:12.306Z,18.13
2022-10-23T15:32:55.299Z,18.02
2022-10-23T15:35:39.844Z,17.88
2022-10-23T15:38:23.587Z,17.84
2022-10-23T15:41:16.942Z,17.78
2022-10-23T15:44:01.037Z,17.71
2022-10-23T15:46:44.397Z,17.62
2022-10-23T15:49:30.463Z,17.57
2022-10-23T15:52:15.070Z,17.46
2022-10-23T15:54:58.082Z,17.46
2022-10-23T15:57:41.434Z,17.38
2022-10-23T16:00:24.489Z,17.33
2022-10-23T16:03:07.624Z,17.19
2022-10-23T16:05:50.667Z,17.26
2022-10-23T16:08:35.506Z,17.27
2022-10-23T16:11:24.380Z,17.16
2022-10-23T16:14:08.061Z,17.12
2022-10-23T16:16:51.107Z,17.10
2022-10-23T16:19:34.217Z,17.04
2022-10-23T16:22:17.544Z,17.02
2022-10-23T16:25:02.001Z,16.98
2022-10-23T16:27:45.812Z,16.95
2022-10-23T16:30:29.083Z,16.91
2022-10-23T16:33:12.145Z,16.82
2022-10-23T16:35:55.147Z,16.77
2022-10-23T16:38:38.296Z,16.75
2022-10-23T16:41:22.759Z,16.67
2022-10-23T16:44:06.341Z,16.64
2022-10-23T16:46:49.367Z,16.57
2022-10-23T16:49:32.443Z,16.44
2022-10-23T16:52:15.471Z,16.35
2022-10-23T16:54:58.559Z,16.19
2022-10-23T16:57:43.009Z,16.20
2022-10-23T17:00:30.996Z,16.09
2022-10-23T17:03:13.977Z,15.87
2022-10-23T17:06:01.903Z,15.70
2022-10-23T17:08:45.583Z,15.58
2022-10-23T17:11:30.931Z,15.54
2022-10-23T17:14:18.549Z,15.41
2022-10-23T17:17:03.730Z,15.36
2022-10-23T17:19:47.030Z,15.30
2022-10-23T17:22:30.225Z,15.25
2022-10-23T17:25:13.210Z,15.21
2022-10-23T17:27:56.283Z,15.12
2022-10-23T17:30:40.747Z,15.12
2022-10-23T17:33:23.898Z,15.08
2022-10-23T17:36:10.341Z,15.09
2022-10-23T17:38:54.335Z,14.96
2022-10-23T17:41:38.407Z,14.96
2022-10-23T17:44:21.425Z,14.98
2022-10-23T17:47:06.000Z,14.92
2022-10-23T17:49:49.012Z,14.86
2022-10-23T17:52:32.033Z,14.87
2022-10-23T17:55:15.039Z,14.82
2022-10-23T17:57:59.183Z,14.81
2022-10-23T18:00:42.186Z,14.70
2022-10-23T18:03:26.733Z,14.65
2022-10-23T18:06:12.093Z,14.58
2022-10-23T18:08:56.349Z,14.57
2022-10-23T18:11:45.218Z,14.61
2022-10-23T18:14:34.307Z,14.57
2022-10-23T18:17:19.641Z,14.49
2022-10-23T18:20:04.451Z,14.47
2022-10-23T18:22:47.491Z,14.36
2022-10-23T18:25:30.488Z,14.37
2022-10-23T18:28:13.487Z,14.33
2022-10-23T18:30:57.196Z,14.24
2022-10-23T18:33:40.727Z,14.24
2022-10-23T18:36:27.008Z,14.08
2022-10-23T18:39:13.400Z,14.10
2022-10-23T18:41:58.168Z,14.04
2022-10-23T18:44:46.842Z,13.95
2022-10-23T18:47:29.931Z,13.86
2022-10-23T18:50:13.027Z,13.83
2022-10-23T18:52:58.001Z,13.91
2022-10-23T18:55:46.422Z,13.88
2022-10-23T18:58:29.543Z,13.85
2022-10-23T19:01:12.700Z,13.89
2022-10-23T19:03:57.596Z,13.80
2022-10-23T19:06:40.599Z,13.74
2022-10-23T19:09:25.053Z,13.60
2022-10-23T19:12:08.276Z,13.47
2022-10-23T19:14:52.055Z,13.43
2022-10-23T19:17:35.176Z,13.42
2022-10-23T19:20:20.777Z,13.38
2022-10-23T19:23:06.837Z,13.44
2022-10-23T19:25:51.623Z,13.37
2022-10-23T19:28:37.651Z,13.34
2022-10-23T19:31:21.079Z,13.33
2022-10-23T19:34:04.562Z,13.34
2022-10-23T19:36:47.731Z,13.32
2022-10-23T19:39:30.838Z,13.37
2022-10-23T19:42:15.403Z,13.31
2022-10-23T19:44:58.459Z,13.19
2022-10-23T19:47:42.191Z,12.96
2022-10-23T19:50:25.589Z,13.14
2022-10-23T19:53:08.579Z,13.12
2022-10-23T19:55:51.613Z,13.16
2022-10-23T19:58:36.262Z,13.18
2022-10-23T20:01:22.685Z,13.16
2022-10-23T20:04:05.850Z,13.12
2022-10-23T20:06:48.857Z,13.10
2022-10-23T20:09:32.387Z,13.07
2022-10-23T20:12:15.547Z,13.07
2022-10-23T20:15:00.176Z,13.01
2022-10-23T20:17:43.187Z,12.95
2022-10-23T20:20:26.237Z,12.92
2022-10-23T20:23:09.595Z,12.89
2022-10-23T20:25:52.623Z,12.92
2022-10-23T20:28:36.323Z,12.92
2022-10-23T20:31:22.069Z,12.85
2022-10-23T20:34:05.107Z,12.76
2022-10-23T20:36:50.525Z,12.80
2022-10-23T20:39:35.720Z,12.77
2022-10-23T20:42:18.721Z,12.70
2022-10-23T20:45:03.527Z,12.61
2022-10-23T20:47:48.011Z,12.58
2022-10-23T20:50:31.055Z,12.48
2022-10-23T20:53:14.124Z,12.50
2022-10-23T20:55:57.160Z,12.54
2022-10-23T20:58:40.383Z,12.52
2022-10-23T21:01:24.161Z,12.48
2022-10-23T21:04:09.032Z,12.48
2022-10-23T21:07:10.795Z,12.46
2022-10-23T21:09:54.501Z,12.47
2022-10-23T21:12:37.514Z,12.51
2022-10-23T21:15:20.692Z,12.50
2022-10-23T21:18:13.137Z,12.51
2022-10-23T21:21:08.199Z,12.46
2022-10-23T21:23:53.868Z,12.47
2022-10-23T21:26:36.999Z,12.50
2022-10-23T21:29:20.599Z,12.41
2022-10-23T21:32:04.102Z,12.39
2022-10-23T21:34:47.116Z,12.41
2022-10-23T21:37:31.453Z,12.34
2022-10-23T21:40:14.506Z,12.32
2022-10-23T21:42:57.491Z,12.27
2022-10-23T21:45:40.492Z,12.18
2022-10-23T21:48:23.502Z,12.24
2022-10-23T21:51:06.897Z,12.13
2022-10-23T21:53:51.996Z,12.11
2022-10-23T21:56:39.897Z,11.98
2022-10-23T21:59:25.792Z,11.94
2022-10-23T22:02:11.212Z,11.97
2022-10-23T22:04:54.410Z,11.85
2022-10-23T22:07:37.384Z,11.78
2022-10-23T22:10:21.762Z,11.63
2022-10-23T22:13:04.958Z,11.56
2022-10-23T22:15:47.928Z,11.47
2022-10-23T22:18:31.011Z,11.50
2022-10-23T22:21:16.612Z,11.44
2022-10-23T22:24:01.709Z,11.41
2022-10-23T22:26:48.084Z,11.35
2022-10-23T22:29:31.057Z,11.31
2022-10-23T22:32:14.113Z,11.28
2022-10-23T22:34:57.218Z,11.20
2022-10-23T22:37:40.251Z,11.18
2022-10-23T22:40:23.248Z,11.06
2022-10-23T22:43:07.663Z,11.15
2022-10-23T22:45:50.612Z,11.14
2022-10-23T22:48:33.638Z,11.04
2022-10-23T22:51:18.740Z,11.04
2022-10-23T22:54:01.937Z,11.04
2022-10-23T22:56:44.990Z,10.97
2022-10-23T22:59:29.457Z,11.01
2022-10-23T23:02:12.411Z,11.01
2022-10-23T23:04:55.380Z,10.98
2022-10-23T23:07:38.371Z,10.89
2022-10-23T23:10:21.328Z,10.94
2022-10-23T23:13:04.340Z,10.88
2022-10-23T23:15:48.792Z,10.92
2022-10-23T23:18:32.262Z,10.87
2022-10-23T23:21:15.926Z,10.88
2022-10-23T23:23:59.670Z,10.89
2022-10-23T23:26:42.709Z,10.87
2022-10-23T23:29:25.786Z,10.85
2022-10-23T23:32:11.518Z,10.83
2022-10-23T23:34:54.505Z,10.86
2022-10-23T23:37:37.552Z,10.88
2022-10-23T23:40:20.590Z,10.84
2022-10-23T23:43:03.628Z,10.84
2022-10-23T23:45:46.659Z,10.80
2022-10-23T23:48:31.102Z,10.79
2022-10-23T23:51:14.446Z,10.89
2022-10-23T23:53:57.444Z,10.79
2022-10-23T23:56:40.486Z,10.83
2022-10-23T23:59:23.586Z,10.80
